createdAt,value
2017-08-07T00:00:21.279Z,1020.61
2017-08-07T00:01:21.345Z,1020.61
2017-08-07T00:02:21.341Z,1020.56
2017-08-07T00:03:21.374Z,1020.6
2017-08-07T00:04:21.429Z,1020.58
2017-08-07T00:05:21.442Z,1020.51
2017-08-07T00:06:21.468Z,1020.5
2017-08-07T00:07:21.508Z,1020.47
2017-08-07T00:08:21.560Z,1020.5
2017-08-07T00:09:21.587Z,1020.55
2017-08-07T00:10:21.953Z,1020.52
2017-08-07T00:11:21.964Z,1020.53
2017-08-07T00:12:22.019Z,1020.54
2017-08-07T00:13:22.047Z,1020.56
2017-08-07T00:14:22.415Z,1020.57
2017-08-07T00:15:22.422Z,1020.63
2017-08-07T00:16:22.750Z,1020.56
2017-08-07T00:17:22.781Z,1020.58
2017-08-07T00:18:22.816Z,1020.64
2017-08-07T00:19:22.847Z,1020.6
2017-08-07T00:20:23.027Z,1020.61
2017-08-07T00:21:23.366Z,1020.55
2017-08-07T00:22:23.452Z,1020.56
2017-08-07T00:23:23.483Z,1020.55
2017-08-07T00:24:23.518Z,1020.56
2017-08-07T00:25:24.016Z,1020.59
2017-08-07T00:26:24.063Z,1020.54
2017-08-07T00:27:24.073Z,1020.57
2017-08-07T00:28:24.107Z,1020.51
2017-08-07T00:29:24.491Z,1020.52
2017-08-07T00:30:24.604Z,1020.56
2017-08-07T00:31:24.558Z,1020.58
2017-08-07T00:32:24.619Z,1020.59
2017-08-07T00:33:24.654Z,1020.59
2017-08-07T00:34:24.685Z,1020.63
2017-08-07T00:35:25.119Z,1020.62
2017-08-07T00:36:25.148Z,1020.67
2017-08-07T00:37:25.158Z,1020.61
2017-08-07T00:38:25.203Z,1020.62
2017-08-07T00:39:25.246Z,1020.64
2017-08-07T00:40:25.281Z,1020.6
2017-08-07T00:41:25.336Z,1020.62
2017-08-07T00:42:25.418Z,1020.64
2017-08-07T00:43:25.446Z,1020.59
2017-08-07T00:44:25.459Z,1020.58
2017-08-07T00:45:25.849Z,1020.57
2017-08-07T00:46:25.861Z,1020.57
2017-08-07T00:47:25.889Z,1020.57
2017-08-07T00:48:25.923Z,1020.49
2017-08-07T00:49:26.025Z,1020.55
2017-08-07T00:50:26.059Z,1020.55
2017-08-07T00:51:26.111Z,1020.5
2017-08-07T00:52:26.120Z,1020.53
2017-08-07T00:53:26.153Z,1020.53
2017-08-07T00:54:26.190Z,1020.51
2017-08-07T00:55:26.219Z,1020.54
2017-08-07T00:56:26.246Z,1020.54
2017-08-07T00:57:26.303Z,1020.49
2017-08-07T00:58:26.695Z,1020.46
2017-08-07T00:59:26.748Z,1020.48
2017-08-07T01:00:26.753Z,1020.57
2017-08-07T01:01:26.794Z,1020.5
2017-08-07T01:02:27.132Z,1020.56
2017-08-07T01:03:27.161Z,1020.54
2017-08-07T01:04:27.215Z,1020.57
2017-08-07T01:05:27.226Z,1020.61
2017-08-07T01:06:27.258Z,1020.6
2017-08-07T01:07:27.317Z,1020.62
2017-08-07T01:08:27.325Z,1020.62
2017-08-07T01:09:27.354Z,1020.63
2017-08-07T01:10:27.407Z,1020.58
2017-08-07T01:11:27.420Z,1020.54
2017-08-07T01:12:27.450Z,1020.61
2017-08-07T01:13:27.788Z,1020.56
2017-08-07T01:14:27.819Z,1020.54
2017-08-07T01:15:27.852Z,1020.52
2017-08-07T01:16:28.214Z,1020.55
2017-08-07T01:17:28.224Z,1020.56
2017-08-07T01:18:28.257Z,1020.55
2017-08-07T01:19:28.288Z,1020.54
2017-08-07T01:20:28.326Z,1020.5
2017-08-07T01:21:28.354Z,1020.5
2017-08-07T01:22:28.706Z,1020.53
2017-08-07T01:23:29.067Z,1020.55
2017-08-07T01:24:29.112Z,1020.55
2017-08-07T01:25:29.125Z,1020.57
2017-08-07T01:26:29.207Z,1020.58
2017-08-07T01:27:29.255Z,1020.58
2017-08-07T01:28:29.282Z,1020.57
2017-08-07T01:29:29.323Z,1020.59
2017-08-07T01:30:29.350Z,1020.54
2017-08-07T01:31:29.750Z,1020.55
2017-08-07T01:32:30.093Z,1020.56
2017-08-07T01:33:30.103Z,1020.54
2017-08-07T01:34:30.154Z,1020.57
2017-08-07T01:35:30.165Z,1020.51
2017-08-07T01:36:30.196Z,1020.52
2017-08-07T01:37:30.229Z,1020.51
2017-08-07T01:38:30.257Z,1020.5
2017-08-07T01:39:30.608Z,1020.55
2017-08-07T01:40:30.659Z,1020.47
2017-08-07T01:41:30.670Z,1020.54
2017-08-07T01:42:30.705Z,1020.56
2017-08-07T01:43:30.753Z,1020.52
2017-08-07T01:44:30.764Z,1020.47
2017-08-07T01:45:30.798Z,1020.46
2017-08-07T01:46:30.852Z,1020.51
2017-08-07T01:47:30.879Z,1020.53
2017-08-07T01:48:30.915Z,1020.53
2017-08-07T01:49:30.923Z,1020.53
2017-08-07T01:50:31.249Z,1020.5
2017-08-07T01:51:31.280Z,1020.51
2017-08-07T01:52:31.312Z,1020.55
2017-08-07T01:53:31.343Z,1020.52
2017-08-07T01:54:31.389Z,1020.55
2017-08-07T01:55:31.408Z,1020.53
2017-08-07T01:56:31.530Z,1020.51
2017-08-07T01:57:31.542Z,1020.46
2017-08-07T01:58:31.566Z,1020.47
2017-08-07T01:59:31.962Z,1020.49
2017-08-07T02:00:32.012Z,1020.48
2017-08-07T02:01:32.037Z,1020.51
2017-08-07T02:02:32.448Z,1020.44
2017-08-07T02:03:32.474Z,1020.52
2017-08-07T02:04:32.512Z,1020.49
2017-08-07T02:05:32.527Z,1020.52
2017-08-07T02:06:32.554Z,1020.51
2017-08-07T02:07:32.583Z,1020.48
2017-08-07T02:08:32.973Z,1020.48
2017-08-07T02:09:33.005Z,1020.47
2017-08-07T02:10:33.038Z,1020.48
2017-08-07T02:11:33.066Z,1020.5
2017-08-07T02:12:33.388Z,1020.51
2017-08-07T02:13:33.774Z,1020.5
2017-08-07T02:14:33.825Z,1020.52
2017-08-07T02:15:33.855Z,1020.48
2017-08-07T02:16:34.161Z,1020.5
2017-08-07T02:17:34.187Z,1020.53
2017-08-07T02:18:34.223Z,1020.49
2017-08-07T02:19:34.256Z,1020.49
2017-08-07T02:20:34.308Z,1020.48
2017-08-07T02:21:34.318Z,1020.5
2017-08-07T02:22:34.349Z,1020.43
2017-08-07T02:23:34.382Z,1020.47
2017-08-07T02:24:34.435Z,1020.44
2017-08-07T02:25:34.443Z,1020.48
2017-08-07T02:26:34.477Z,1020.41
2017-08-07T02:27:34.510Z,1020.45
2017-08-07T02:28:34.558Z,1020.44
2017-08-07T02:29:34.570Z,1020.42
2017-08-07T02:30:34.951Z,1020.44
2017-08-07T02:31:34.976Z,1020.45
2017-08-07T02:32:35.012Z,1020.42
2017-08-07T02:33:35.065Z,1020.45
2017-08-07T02:34:35.076Z,1020.43
2017-08-07T02:35:35.130Z,1020.45
2017-08-07T02:36:35.139Z,1020.44
2017-08-07T02:37:35.519Z,1020.49
2017-08-07T02:38:35.556Z,1020.5
2017-08-07T02:39:35.565Z,1020.46
2017-08-07T02:40:35.623Z,1020.49
2017-08-07T02:41:35.971Z,1020.45
2017-08-07T02:42:36.024Z,1020.45
2017-08-07T02:43:36.055Z,1020.47
2017-08-07T02:44:36.352Z,1020.46
2017-08-07T02:45:36.380Z,1020.42
2017-08-07T02:46:36.416Z,1020.48
2017-08-07T02:47:36.769Z,1020.48
2017-08-07T02:48:36.798Z,1020.43
2017-08-07T02:49:36.852Z,1020.45
2017-08-07T02:50:36.861Z,1020.45
2017-08-07T02:51:36.902Z,1020.48
2017-08-07T02:52:36.930Z,1020.46
2017-08-07T02:53:36.957Z,1020.46
2017-08-07T02:54:36.986Z,1020.45
2017-08-07T02:55:37.022Z,1020.38
2017-08-07T02:56:37.051Z,1020.42
2017-08-07T02:57:37.106Z,1020.4
2017-08-07T02:58:37.135Z,1020.4
2017-08-07T02:59:37.188Z,1020.36
2017-08-07T03:00:37.223Z,1020.42
2017-08-07T03:01:37.316Z,1020.44
2017-08-07T03:02:37.261Z,1020.43
2017-08-07T03:03:37.293Z,1020.47
2017-08-07T03:04:37.629Z,1020.43
2017-08-07T03:05:37.638Z,1020.36
2017-08-07T03:06:37.673Z,1020.38
2017-08-07T03:07:37.722Z,1020.39
2017-08-07T03:08:37.734Z,1020.4
2017-08-07T03:09:37.780Z,1020.44
2017-08-07T03:10:37.810Z,1020.42
2017-08-07T03:11:37.826Z,1020.46
2017-08-07T03:12:37.856Z,1020.43
2017-08-07T03:13:37.913Z,1020.43
2017-08-07T03:14:37.925Z,1020.48
2017-08-07T03:15:37.951Z,1020.42
2017-08-07T03:16:37.983Z,1020.45
2017-08-07T03:17:38.020Z,1020.44
2017-08-07T03:18:38.053Z,1020.43
2017-08-07T03:19:38.081Z,1020.44
2017-08-07T03:20:38.134Z,1020.44
2017-08-07T03:21:38.164Z,1020.46
2017-08-07T03:22:38.193Z,1020.46
2017-08-07T03:23:38.227Z,1020.45
2017-08-07T03:24:38.234Z,1020.41
2017-08-07T03:25:38.278Z,1020.39
2017-08-07T03:26:38.307Z,1020.43
2017-08-07T03:27:38.337Z,1020.4
2017-08-07T03:28:38.731Z,1020.37
2017-08-07T03:29:38.738Z,1020.37
2017-08-07T03:30:38.769Z,1020.36
2017-08-07T03:31:38.799Z,1020.32
2017-08-07T03:32:38.833Z,1020.34
2017-08-07T03:33:38.864Z,1020.33
2017-08-07T03:34:38.895Z,1020.35
2017-08-07T03:35:38.926Z,1020.35
2017-08-07T03:36:38.972Z,1020.36
2017-08-07T03:37:39.023Z,1020.35
2017-08-07T03:38:39.375Z,1020.39
2017-08-07T03:39:39.426Z,1020.38
2017-08-07T03:40:39.436Z,1020.42
2017-08-07T03:41:39.467Z,1020.4
2017-08-07T03:42:39.520Z,1020.38
2017-08-07T03:43:39.554Z,1020.4
2017-08-07T03:44:39.564Z,1020.37
2017-08-07T03:45:39.591Z,1020.47
2017-08-07T03:46:39.626Z,1020.46
2017-08-07T03:47:39.657Z,1020.47
2017-08-07T03:48:39.689Z,1020.45
2017-08-07T03:49:39.721Z,1020.48
2017-08-07T03:50:39.754Z,1020.49
2017-08-07T03:51:39.781Z,1020.45
2017-08-07T03:52:39.838Z,1020.46
2017-08-07T03:53:39.847Z,1020.42
2017-08-07T03:54:39.878Z,1020.43
2017-08-07T03:55:40.216Z,1020.48
2017-08-07T03:56:40.264Z,1020.43
2017-08-07T03:57:40.265Z,1020.45
2017-08-07T03:58:40.300Z,1020.46
2017-08-07T03:59:40.335Z,1020.46
2017-08-07T04:00:40.362Z,1020.44
2017-08-07T04:01:40.413Z,1020.43
2017-08-07T04:02:40.426Z,1020.46
2017-08-07T04:03:40.457Z,1020.46
2017-08-07T04:04:40.484Z,1020.43
2017-08-07T04:05:40.547Z,1020.42
2017-08-07T04:06:40.563Z,1020.4
2017-08-07T04:07:40.586Z,1020.38
2017-08-07T04:08:40.616Z,1020.39
2017-08-07T04:09:40.978Z,1020.39
2017-08-07T04:10:41.019Z,1020.46
2017-08-07T04:11:41.044Z,1020.43
2017-08-07T04:12:41.088Z,1020.4
2017-08-07T04:13:41.467Z,1020.43
2017-08-07T04:14:41.498Z,1020.44
2017-08-07T04:15:41.529Z,1020.42
2017-08-07T04:16:41.852Z,1020.45
2017-08-07T04:17:41.887Z,1020.48
2017-08-07T04:18:42.213Z,1020.49
2017-08-07T04:19:42.263Z,1020.45
2017-08-07T04:20:42.289Z,1020.55
2017-08-07T04:21:42.321Z,1020.5
2017-08-07T04:22:42.363Z,1020.5
2017-08-07T04:23:42.388Z,1020.5
2017-08-07T04:24:42.419Z,1020.46
2017-08-07T04:25:42.455Z,1020.46
2017-08-07T04:26:42.518Z,1020.46
2017-08-07T04:27:42.549Z,1020.49
2017-08-07T04:28:42.583Z,1020.5
2017-08-07T04:29:42.625Z,1020.45
2017-08-07T04:30:42.661Z,1020.57
2017-08-07T04:31:42.672Z,1020.56
2017-08-07T04:32:42.719Z,1020.54
2017-08-07T04:33:42.735Z,1020.53
2017-08-07T04:34:42.781Z,1020.55
2017-08-07T04:35:42.804Z,1020.54
2017-08-07T04:36:42.835Z,1020.58
2017-08-07T04:37:42.866Z,1020.57
2017-08-07T04:38:42.894Z,1020.59
2017-08-07T04:39:42.925Z,1020.62
2017-08-07T04:40:43.267Z,1020.57
2017-08-07T04:41:43.280Z,1020.63
2017-08-07T04:42:43.313Z,1020.62
2017-08-07T04:43:43.364Z,1020.65
2017-08-07T04:44:43.375Z,1020.62
2017-08-07T04:45:43.407Z,1020.59
2017-08-07T04:46:43.436Z,1020.62
2017-08-07T04:47:43.471Z,1020.62
2017-08-07T04:48:43.841Z,1020.66
2017-08-07T04:49:43.880Z,1020.67
2017-08-07T04:50:43.906Z,1020.59
2017-08-07T04:51:43.936Z,1020.6
2017-08-07T04:52:44.303Z,1020.64
2017-08-07T04:53:44.332Z,1020.58
2017-08-07T04:54:44.364Z,1020.54
2017-08-07T04:55:44.390Z,1020.55
2017-08-07T04:56:44.437Z,1020.59
2017-08-07T04:57:44.454Z,1020.55
2017-08-07T04:58:44.762Z,1020.54
2017-08-07T04:59:45.059Z,1020.48
2017-08-07T05:00:45.073Z,1020.53
2017-08-07T05:01:45.429Z,1020.43
2017-08-07T05:02:45.438Z,1020.47
2017-08-07T05:03:45.467Z,1020.48
2017-08-07T05:04:45.772Z,1020.48
2017-08-07T05:05:45.799Z,1020.5
2017-08-07T05:06:45.832Z,1020.42
2017-08-07T05:07:45.866Z,1020.44
2017-08-07T05:08:45.924Z,1020.42
2017-08-07T05:09:45.954Z,1020.4
2017-08-07T05:10:45.982Z,1020.42
2017-08-07T05:11:46.037Z,1020.4
2017-08-07T05:12:46.068Z,1020.49
2017-08-07T05:13:46.078Z,1020.46
2017-08-07T05:14:46.132Z,1020.44
2017-08-07T05:15:46.466Z,1020.43
2017-08-07T05:16:46.491Z,1020.45
2017-08-07T05:17:46.529Z,1020.47
2017-08-07T05:18:46.561Z,1020.5
2017-08-07T05:19:46.594Z,1020.5
2017-08-07T05:20:46.627Z,1020.47
2017-08-07T05:21:46.657Z,1020.48
2017-08-07T05:22:46.687Z,1020.46
2017-08-07T05:23:46.725Z,1020.45
2017-08-07T05:24:46.746Z,1020.45
2017-08-07T05:25:47.096Z,1020.43
2017-08-07T05:26:47.166Z,1020.41
2017-08-07T05:27:47.173Z,1020.48
2017-08-07T05:28:47.231Z,1020.51
2017-08-07T05:29:47.265Z,1020.52
2017-08-07T05:30:47.276Z,1020.48
2017-08-07T05:31:47.329Z,1020.5
2017-08-07T05:32:47.339Z,1020.56
2017-08-07T05:33:47.370Z,1020.53
2017-08-07T05:34:47.408Z,1020.56
2017-08-07T05:35:47.436Z,1020.53
2017-08-07T05:36:47.474Z,1020.55
2017-08-07T05:37:47.857Z,1020.51
2017-08-07T05:38:47.883Z,1020.59
2017-08-07T05:39:47.920Z,1020.52
2017-08-07T05:40:48.282Z,1020.59
2017-08-07T05:41:48.319Z,1020.51
2017-08-07T05:42:48.355Z,1020.52
2017-08-07T05:43:48.404Z,1020.49
2017-08-07T05:44:48.415Z,1020.52
2017-08-07T05:45:48.452Z,1020.54
2017-08-07T05:46:48.484Z,1020.47
2017-08-07T05:47:48.519Z,1020.48
2017-08-07T05:48:48.559Z,1020.52
2017-08-07T05:49:48.584Z,1020.42
2017-08-07T05:50:48.620Z,1020.45
2017-08-07T05:51:48.659Z,1020.45
2017-08-07T05:52:48.686Z,1020.47
2017-08-07T05:53:48.726Z,1020.49
2017-08-07T05:54:48.759Z,1020.49
2017-08-07T05:55:48.790Z,1020.52
2017-08-07T05:56:49.116Z,1020.51
2017-08-07T05:57:49.169Z,1020.48
2017-08-07T05:58:49.494Z,1020.48
2017-08-07T05:59:49.534Z,1020.46
2017-08-07T06:00:49.885Z,1020.48
2017-08-07T06:01:49.918Z,1020.48
2017-08-07T06:02:49.949Z,1020.49
2017-08-07T06:03:49.983Z,1020.44
2017-08-07T06:04:50.022Z,1020.43
2017-08-07T06:05:50.068Z,1020.53
2017-08-07T06:06:50.096Z,1020.5
2017-08-07T06:07:50.147Z,1020.49
2017-08-07T06:08:50.478Z,1020.61
2017-08-07T06:09:50.515Z,1020.59
2017-08-07T06:10:50.570Z,1020.61
2017-08-07T06:11:50.630Z,1020.66
2017-08-07T06:12:50.659Z,1020.62
2017-08-07T06:13:50.695Z,1020.72
2017-08-07T06:14:50.756Z,1020.7
2017-08-07T06:15:50.763Z,1020.78
2017-08-07T06:16:51.173Z,1020.75
2017-08-07T06:17:51.188Z,1020.71
2017-08-07T06:18:51.244Z,1020.74
2017-08-07T06:19:51.628Z,1020.74
2017-08-07T06:20:51.680Z,1020.73
2017-08-07T06:21:51.698Z,1020.71
2017-08-07T06:22:51.769Z,1020.68
2017-08-07T06:23:51.801Z,1020.71
2017-08-07T06:24:51.842Z,1020.72
2017-08-07T06:25:51.873Z,1020.69
2017-08-07T06:26:51.916Z,1020.7
2017-08-07T06:27:51.953Z,1020.73
2017-08-07T06:28:51.990Z,1020.74
2017-08-07T06:29:52.333Z,1020.72
2017-08-07T06:30:52.679Z,1020.73
2017-08-07T06:31:52.714Z,1020.76
2017-08-07T06:32:52.774Z,1020.71
2017-08-07T06:33:52.799Z,1020.71
2017-08-07T06:34:52.834Z,1020.68
2017-08-07T06:35:52.870Z,1020.67
2017-08-07T06:36:53.220Z,1020.66
2017-08-07T06:37:53.259Z,1020.64
2017-08-07T06:38:53.321Z,1020.67
2017-08-07T06:39:53.769Z,1020.68
2017-08-07T06:40:53.807Z,1020.61
2017-08-07T06:41:53.849Z,1020.67
2017-08-07T06:42:54.245Z,1020.69
2017-08-07T06:43:54.284Z,1020.68
2017-08-07T06:44:54.324Z,1020.64
2017-08-07T06:45:54.362Z,1020.63
2017-08-07T06:46:54.453Z,1020.61
2017-08-07T06:47:54.480Z,1020.64
2017-08-07T06:48:54.536Z,1020.64
2017-08-07T06:49:54.581Z,1020.61
2017-08-07T06:50:54.601Z,1020.65
2017-08-07T06:51:54.653Z,1020.63
2017-08-07T06:52:54.683Z,1020.67
2017-08-07T06:53:54.750Z,1020.63
2017-08-07T06:54:54.769Z,1020.65
2017-08-07T06:55:54.810Z,1020.58
2017-08-07T06:56:54.861Z,1020.64
2017-08-07T06:57:54.897Z,1020.62
2017-08-07T06:58:54.952Z,1020.64
2017-08-07T06:59:54.977Z,1020.56
2017-08-07T07:00:55.013Z,1020.6
2017-08-07T07:01:55.082Z,1020.63
2017-08-07T07:02:55.105Z,1020.64
2017-08-07T07:03:55.148Z,1020.68
2017-08-07T07:04:55.209Z,1020.7
2017-08-07T07:05:55.225Z,1020.67
2017-08-07T07:06:55.298Z,1020.75
2017-08-07T07:07:55.341Z,1020.69
2017-08-07T07:08:55.381Z,1020.66
2017-08-07T07:09:55.423Z,1020.61
2017-08-07T07:10:55.841Z,1020.63
2017-08-07T07:11:55.876Z,1020.65
2017-08-07T07:12:55.917Z,1020.63
2017-08-07T07:13:55.962Z,1020.61
2017-08-07T07:14:56.001Z,1020.58
2017-08-07T07:15:56.048Z,1020.6
2017-08-07T07:16:56.099Z,1020.62
2017-08-07T07:17:56.472Z,1020.59
2017-08-07T07:18:56.524Z,1020.61
2017-08-07T07:19:56.556Z,1020.57
2017-08-07T07:20:56.596Z,1020.59
2017-08-07T07:21:56.643Z,1020.49
2017-08-07T07:22:56.687Z,1020.48
2017-08-07T07:23:56.724Z,1020.49
2017-08-07T07:24:56.770Z,1020.49
2017-08-07T07:25:56.809Z,1020.54
2017-08-07T07:26:57.207Z,1020.5
2017-08-07T07:27:57.222Z,1020.5
2017-08-07T07:28:57.269Z,1020.5
2017-08-07T07:29:57.317Z,1020.5
2017-08-07T07:30:57.354Z,1020.52
2017-08-07T07:31:57.403Z,1020.5
2017-08-07T07:32:57.441Z,1020.49
2017-08-07T07:33:57.505Z,1020.46
2017-08-07T07:34:57.527Z,1020.45
2017-08-07T07:35:57.570Z,1020.47
2017-08-07T07:36:57.907Z,1020.46
2017-08-07T07:37:57.951Z,1020.45
2017-08-07T07:38:58.048Z,1020.42
2017-08-07T07:39:58.090Z,1020.42
2017-08-07T07:40:58.126Z,1020.43
2017-08-07T07:41:58.173Z,1020.42
2017-08-07T07:42:58.227Z,1020.44
2017-08-07T07:43:58.469Z,1020.44
2017-08-07T07:44:58.861Z,1020.39
2017-08-07T07:45:58.942Z,1020.39
2017-08-07T07:46:58.941Z,1020.4
2017-08-07T07:47:59.274Z,1020.42
2017-08-07T07:48:59.317Z,1020.39
2017-08-07T07:49:59.368Z,1020.38
2017-08-07T07:50:59.405Z,1020.34
2017-08-07T07:51:59.454Z,1020.32
2017-08-07T07:52:59.510Z,1020.34
2017-08-07T07:53:59.598Z,1020.35
2017-08-07T07:54:59.642Z,1020.35
2017-08-07T07:55:59.690Z,1020.34
2017-08-07T07:56:59.730Z,1020.29
2017-08-07T07:57:59.782Z,1020.34
2017-08-07T07:58:59.831Z,1020.37
2017-08-07T07:59:59.864Z,1020.43
2017-08-07T08:00:59.935Z,1020.42
2017-08-07T08:01:59.964Z,1020.43
2017-08-07T08:03:00.398Z,1020.37
2017-08-07T08:04:00.419Z,1020.32
2017-08-07T08:05:00.814Z,1020.35
2017-08-07T08:06:01.255Z,1020.4
2017-08-07T08:07:01.651Z,1020.34
2017-08-07T08:08:01.696Z,1020.38
2017-08-07T08:09:01.744Z,1020.45
2017-08-07T08:10:01.815Z,1020.63
2017-08-07T08:11:01.838Z,1020.72
2017-08-07T08:12:02.214Z,1020.7
2017-08-07T08:13:02.261Z,1020.71
2017-08-07T08:14:02.311Z,1020.69
2017-08-07T08:15:02.352Z,1020.64
2017-08-07T08:16:02.830Z,1020.71
2017-08-07T08:17:02.829Z,1020.75
2017-08-07T08:18:02.876Z,1020.72
2017-08-07T08:19:02.948Z,1020.7
2017-08-07T08:20:02.971Z,1020.68
2017-08-07T08:21:03.014Z,1020.7
2017-08-07T08:22:03.122Z,1020.68
2017-08-07T08:23:03.417Z,1020.69
2017-08-07T08:24:03.464Z,1020.67
2017-08-07T08:25:03.507Z,1020.63
2017-08-07T08:26:03.556Z,1020.57
2017-08-07T08:27:03.601Z,1020.52
2017-08-07T08:28:03.666Z,1020.58
2017-08-07T08:29:04.057Z,1020.69
2017-08-07T08:30:04.135Z,1020.74
2017-08-07T08:31:04.808Z,1020.76
2017-08-07T08:32:04.836Z,1020.8
2017-08-07T08:33:04.882Z,1020.72
2017-08-07T08:34:04.928Z,1020.82
2017-08-07T08:35:05.025Z,1020.79
2017-08-07T08:36:05.025Z,1020.72
2017-08-07T08:37:05.073Z,1020.78
2017-08-07T08:38:05.134Z,1020.83
2017-08-07T08:39:05.161Z,1020.81
2017-08-07T08:40:05.274Z,1020.76
2017-08-07T08:41:05.316Z,1020.73
2017-08-07T08:42:05.360Z,1020.73
2017-08-07T08:43:05.412Z,1020.71
2017-08-07T08:44:05.455Z,1020.74
2017-08-07T08:45:05.513Z,1020.74
2017-08-07T08:46:05.551Z,1020.74
2017-08-07T08:47:05.602Z,1020.79
2017-08-07T08:48:05.647Z,1020.67
2017-08-07T08:49:05.693Z,1020.76
2017-08-07T08:50:05.738Z,1020.74
2017-08-07T08:51:05.790Z,1020.74
2017-08-07T08:52:06.118Z,1020.77
2017-08-07T08:53:06.173Z,1020.76
2017-08-07T08:54:06.239Z,1020.75
2017-08-07T08:55:06.285Z,1020.77
2017-08-07T08:56:06.324Z,1020.72
2017-08-07T08:57:06.368Z,1020.73
2017-08-07T08:58:06.419Z,1020.62
2017-08-07T08:59:06.702Z,1020.6
2017-08-07T09:00:06.740Z,1020.66
2017-08-07T09:01:06.816Z,1020.6
2017-08-07T09:02:06.849Z,1020.59
2017-08-07T09:03:06.902Z,1020.66
2017-08-07T09:04:06.994Z,1020.67
2017-08-07T09:05:07.352Z,1020.64
2017-08-07T09:06:07.109Z,1020.58
2017-08-07T09:07:07.547Z,1020.62
2017-08-07T09:08:07.600Z,1020.64
2017-08-07T09:09:07.644Z,1020.74
2017-08-07T09:10:07.690Z,1020.69
2017-08-07T09:11:07.735Z,1020.6
2017-08-07T09:12:08.106Z,1020.57
2017-08-07T09:13:08.463Z,1020.55
2017-08-07T09:14:08.520Z,1020.62
2017-08-07T09:15:08.565Z,1020.63
2017-08-07T09:16:08.798Z,1020.65
2017-08-07T09:17:08.839Z,1020.66
2017-08-07T09:18:09.466Z,1020.71
2017-08-07T09:19:09.260Z,1020.67
2017-08-07T09:20:09.309Z,1020.6
2017-08-07T09:21:09.372Z,1020.54
2017-08-07T09:22:09.412Z,1020.51
2017-08-07T09:23:09.453Z,1020.55
2017-08-07T09:24:09.506Z,1020.61
2017-08-07T09:25:09.568Z,1020.67
2017-08-07T09:26:09.603Z,1020.72
2017-08-07T09:27:09.708Z,1020.67
2017-08-07T09:28:09.754Z,1020.66
2017-08-07T09:29:10.149Z,1020.56
2017-08-07T09:30:10.235Z,1020.54
2017-08-07T09:31:10.592Z,1020.56
2017-08-07T09:32:10.709Z,1020.6
2017-08-07T09:33:10.755Z,1020.63
2017-08-07T09:34:10.804Z,1020.62
2017-08-07T09:35:10.920Z,1020.57
2017-08-07T09:36:11.349Z,1019.37
2017-08-07T09:37:11.393Z,1019.41
2017-08-07T09:38:11.445Z,1019.48
2017-08-07T09:39:11.510Z,1019.5
2017-08-07T09:40:11.597Z,1019.55
2017-08-07T09:41:11.643Z,1019.82
2017-08-07T09:42:11.694Z,1020.7
2017-08-07T09:43:11.756Z,1020.75
2017-08-07T09:44:11.786Z,1020.64
2017-08-07T09:45:11.834Z,1020.7
2017-08-07T09:46:11.889Z,1020.6
2017-08-07T09:47:11.984Z,1020.58
2017-08-07T09:48:11.973Z,1020.56
2017-08-07T09:49:12.070Z,1020.5
2017-08-07T09:50:12.117Z,1020.55
2017-08-07T09:51:12.117Z,1020.55
2017-08-07T09:52:12.162Z,1020.5
2017-08-07T09:53:12.216Z,1020.58
2017-08-07T09:54:12.268Z,1020.49
2017-08-07T09:55:12.327Z,1020.49
2017-08-07T09:56:12.705Z,1020.6
2017-08-07T09:57:13.001Z,1020.56
2017-08-07T09:58:12.801Z,1020.63
2017-08-07T09:59:12.863Z,1020.55
2017-08-07T10:00:13.034Z,1020.58
2017-08-07T10:01:13.196Z,1020.67
2017-08-07T10:02:13.651Z,1020.66
2017-08-07T10:03:14.040Z,1020.68
2017-08-07T10:04:13.760Z,1019.31
2017-08-07T10:05:13.792Z,1019.31
2017-08-07T10:06:14.282Z,1019.39
2017-08-07T10:07:14.649Z,1019.38
2017-08-07T10:08:14.406Z,1019.43
2017-08-07T10:09:14.428Z,1019.41
2017-08-07T10:10:14.492Z,1019.45
2017-08-07T10:11:14.875Z,1019.47
2017-08-07T10:12:14.588Z,1019.56
2017-08-07T10:13:14.619Z,1020.98
2017-08-07T10:14:14.653Z,1020.53
2017-08-07T10:15:14.704Z,1020.97
2017-08-07T10:16:14.750Z,1020.35
2017-08-07T10:17:14.816Z,1020.96
2017-08-07T10:18:14.844Z,1020.99
2017-08-07T10:19:14.889Z,1021.12
2017-08-07T10:20:14.969Z,1021.08
2017-08-07T10:21:14.987Z,1019.54
2017-08-07T10:22:15.050Z,1019.46
2017-08-07T10:23:15.071Z,1019.43
2017-08-07T10:24:15.112Z,1019.5
2017-08-07T10:25:15.461Z,1019.58
2017-08-07T10:26:15.206Z,1019.87
2017-08-07T10:27:15.266Z,1019.69
2017-08-07T10:28:15.322Z,1019.78
2017-08-07T10:29:15.342Z,1021.42
2017-08-07T10:30:15.383Z,1021.43
2017-08-07T10:31:15.435Z,1021.64
2017-08-07T10:32:15.472Z,1021.74
2017-08-07T10:33:15.518Z,1021.85
2017-08-07T10:34:15.562Z,1021.74
2017-08-07T10:35:15.602Z,1021.95
2017-08-07T10:36:15.650Z,1019.15
2017-08-07T10:37:15.692Z,1019.23
2017-08-07T10:38:15.736Z,1020.05
2017-08-07T10:39:15.880Z,1019.37
2017-08-07T10:40:15.937Z,1019.25
2017-08-07T10:41:15.971Z,1019.35
2017-08-07T10:42:16.011Z,1019.44
2017-08-07T10:43:16.052Z,1019.51
2017-08-07T10:44:16.102Z,1019.44
2017-08-07T10:45:16.145Z,1019.33
2017-08-07T10:46:16.178Z,1019.35
2017-08-07T10:47:16.248Z,1019.33
2017-08-07T10:48:16.612Z,1019.33
2017-08-07T10:49:16.659Z,1019.35
2017-08-07T10:50:16.715Z,1019.43
2017-08-07T10:51:16.733Z,1019.45
2017-08-07T10:52:16.772Z,1021.69
2017-08-07T10:53:16.818Z,1019.38
2017-08-07T10:54:16.898Z,1019.29
2017-08-07T10:55:16.966Z,1019.34
2017-08-07T10:56:16.991Z,1019.35
2017-08-07T10:57:17.365Z,1019.33
2017-08-07T10:58:17.439Z,1019.29
2017-08-07T10:59:17.447Z,1019.42
2017-08-07T11:00:17.772Z,1019.61
2017-08-07T11:01:17.913Z,1019.5
2017-08-07T11:02:18.312Z,1019.36
2017-08-07T11:03:18.653Z,1019.78
2017-08-07T11:04:18.676Z,1019.64
2017-08-07T11:05:19.026Z,1019.41
2017-08-07T11:06:18.787Z,1019.41
2017-08-07T11:07:19.148Z,1019.34
2017-08-07T11:08:19.543Z,1019.25
2017-08-07T11:09:19.580Z,1019.28
2017-08-07T11:10:19.628Z,1019.33
2017-08-07T11:11:19.659Z,1019.33
2017-08-07T11:12:19.728Z,1019.31
2017-08-07T11:13:19.742Z,1019.34
2017-08-07T11:14:19.809Z,1019.3
2017-08-07T11:15:19.849Z,1019.27
2017-08-07T11:16:19.887Z,1019.28
2017-08-07T11:17:19.947Z,1019.28
2017-08-07T11:18:20.285Z,1019.35
2017-08-07T11:19:20.678Z,1019.4
2017-08-07T11:20:20.712Z,1019.36
2017-08-07T11:21:21.056Z,1019.25
2017-08-07T11:22:21.090Z,1019.26
2017-08-07T11:23:21.130Z,1019.22
2017-08-07T11:24:21.541Z,1019.3
2017-08-07T11:25:21.585Z,1019.15
2017-08-07T11:26:21.611Z,1019.17
2017-08-07T11:27:21.971Z,1019.24
2017-08-07T11:28:22.007Z,1019.29
2017-08-07T11:29:22.049Z,1019.08
2017-08-07T11:30:22.090Z,1019.16
2017-08-07T11:31:22.126Z,1019.17
2017-08-07T11:32:22.178Z,1019.14
2017-08-07T11:33:22.208Z,1019.25
2017-08-07T11:34:22.245Z,1019.24
2017-08-07T11:35:22.380Z,1019.22
2017-08-07T11:36:22.331Z,1019.2
2017-08-07T11:37:22.398Z,1019.07
2017-08-07T11:38:22.409Z,1019.15
2017-08-07T11:39:22.453Z,1019.06
2017-08-07T11:40:22.485Z,1019.09
2017-08-07T11:41:22.547Z,1019.08
2017-08-07T11:42:22.580Z,1019.11
2017-08-07T11:43:22.618Z,1019.07
2017-08-07T11:44:22.683Z,1019.08
2017-08-07T11:45:22.702Z,1019.09
2017-08-07T11:46:22.743Z,1019.05
2017-08-07T11:47:22.778Z,1019.01
2017-08-07T11:48:22.822Z,1019.01
2017-08-07T11:49:22.857Z,1018.97
2017-08-07T11:50:22.905Z,1019.02
2017-08-07T11:51:22.946Z,1018.99
2017-08-07T11:52:22.977Z,1018.95
2017-08-07T11:53:23.022Z,1018.96
2017-08-07T11:54:23.345Z,1018.92
2017-08-07T11:55:23.637Z,1018.9
2017-08-07T11:56:23.425Z,1018.88
2017-08-07T11:57:23.459Z,1018.85
2017-08-07T11:58:23.499Z,1018.87
2017-08-07T11:59:23.808Z,1018.79
2017-08-07T12:00:23.837Z,1018.77
2017-08-07T12:01:24.276Z,1018.83
2017-08-07T12:02:24.287Z,1018.83
2017-08-07T12:03:24.653Z,1018.75
2017-08-07T12:04:24.748Z,1018.66
2017-08-07T12:05:24.770Z,1018.64
2017-08-07T12:06:24.808Z,1018.67
2017-08-07T12:07:24.851Z,1018.63
2017-08-07T12:08:24.892Z,1018.63